sensor_id;sensor_type;location;lat;lon;timestamp;P1;durP1;ratioP1;P2;durP2;ratioP2
47555;SDS011;33291;46.222;26.460;2023-08-31T00:01:45;13.18;;;5.22;;
47555;SDS011;33291;46.222;26.460;2023-08-31T00:04:11;8.77;;;5.60;;
47555;SDS011;33291;46.222;26.460;2023-08-31T00:06:40;7.85;;;5.13;;
47555;SDS011;33291;46.222;26.460;2023-08-31T00:09:06;8.65;;;5.55;;
47555;SDS011;33291;46.222;26.460;2023-08-31T00:11:34;9.73;;;6.10;;
47555;SDS011;33291;46.222;26.460;2023-08-31T00:14:03;16.15;;;6.20;;
47555;SDS011;33291;46.222;26.460;2023-08-31T00:16:29;9.13;;;5.32;;
47555;SDS011;33291;46.222;26.460;2023-08-31T00:18:58;12.50;;;5.75;;
47555;SDS011;33291;46.222;26.460;2023-08-31T00:21:24;11.55;;;5.38;;
47555;SDS011;33291;46.222;26.460;2023-08-31T00:23:49;9.50;;;5.32;;
47555;SDS011;33291;46.222;26.460;2023-08-31T00:26:15;10.00;;;6.50;;
47555;SDS011;33291;46.222;26.460;2023-08-31T00:28:40;9.65;;;5.80;;
47555;SDS011;33291;46.222;26.460;2023-08-31T00:31:10;8.75;;;6.82;;
47555;SDS011;33291;46.222;26.460;2023-08-31T00:33:37;15.55;;;7.25;;
47555;SDS011;33291;46.222;26.460;2023-08-31T00:36:03;9.93;;;6.25;;
47555;SDS011;33291;46.222;26.460;2023-08-31T00:38:29;14.65;;;6.45;;
47555;SDS011;33291;46.222;26.460;2023-08-31T00:40:55;14.50;;;5.80;;
47555;SDS011;33291;46.222;26.460;2023-08-31T00:43:21;11.00;;;6.88;;
47555;SDS011;33291;46.222;26.460;2023-08-31T00:45:50;14.55;;;6.15;;
47555;SDS011;33291;46.222;26.460;2023-08-31T00:48:21;9.15;;;6.57;;
47555;SDS011;33291;46.222;26.460;2023-08-31T00:50:47;12.98;;;6.80;;
47555;SDS011;33291;46.222;26.460;2023-08-31T00:53:13;14.40;;;6.22;;
47555;SDS011;33291;46.222;26.460;2023-08-31T00:55:41;13.63;;;6.78;;
47555;SDS011;33291;46.222;26.460;2023-08-31T00:58:08;11.38;;;6.93;;
47555;SDS011;33291;46.222;26.460;2023-08-31T01:03:09;15.23;;;7.03;;
47555;SDS011;33291;46.222;26.460;2023-08-31T01:06:13;11.75;;;6.13;;
47555;SDS011;33291;46.222;26.460;2023-08-31T01:14:07;9.05;;;7.20;;
47555;SDS011;33291;46.222;26.460;2023-08-31T01:16:36;9.30;;;6.88;;
47555;SDS011;33291;46.222;26.460;2023-08-31T01:19:09;19.90;;;7.50;;
47555;SDS011;33291;46.222;26.460;2023-08-31T01:21:57;9.68;;;7.20;;
47555;SDS011;33291;46.222;26.460;2023-08-31T01:24:28;10.73;;;7.10;;
47555;SDS011;33291;46.222;26.460;2023-08-31T01:26:55;13.02;;;7.10;;
47555;SDS011;33291;46.222;26.460;2023-08-31T01:29:20;10.18;;;6.35;;
47555;SDS011;33291;46.222;26.460;2023-08-31T01:31:46;12.15;;;7.05;;
47555;SDS011;33291;46.222;26.460;2023-08-31T01:34:12;7.88;;;6.57;;
47555;SDS011;33291;46.222;26.460;2023-08-31T01:36:39;12.07;;;7.22;;
47555;SDS011;33291;46.222;26.460;2023-08-31T01:39:17;14.27;;;6.85;;
47555;SDS011;33291;46.222;26.460;2023-08-31T01:41:52;16.77;;;7.57;;
47555;SDS011;33291;46.222;26.460;2023-08-31T01:44:23;11.13;;;6.85;;
47555;SDS011;33291;46.222;26.460;2023-08-31T01:46:53;14.98;;;7.22;;
47555;SDS011;33291;46.222;26.460;2023-08-31T01:49:19;14.73;;;6.65;;
47555;SDS011;33291;46.222;26.460;2023-08-31T01:51:45;12.05;;;6.55;;
47555;SDS011;33291;46.222;26.460;2023-08-31T01:54:11;13.43;;;7.28;;
47555;SDS011;33291;46.222;26.460;2023-08-31T01:56:37;17.33;;;7.32;;
47555;SDS011;33291;46.222;26.460;2023-08-31T01:59:02;12.45;;;6.68;;
47555;SDS011;33291;46.222;26.460;2023-08-31T02:01:27;13.05;;;7.55;;
47555;SDS011;33291;46.222;26.460;2023-08-31T02:03:54;17.77;;;7.53;;
47555;SDS011;33291;46.222;26.460;2023-08-31T02:06:19;13.18;;;7.45;;
47555;SDS011;33291;46.222;26.460;2023-08-31T02:08:45;14.88;;;6.93;;
47555;SDS011;33291;46.222;26.460;2023-08-31T02:11:12;10.35;;;7.28;;
47555;SDS011;33291;46.222;26.460;2023-08-31T02:13:38;13.80;;;7.15;;
47555;SDS011;33291;46.222;26.460;2023-08-31T02:16:04;8.63;;;6.93;;
47555;SDS011;33291;46.222;26.460;2023-08-31T02:18:30;12.65;;;7.53;;
47555;SDS011;33291;46.222;26.460;2023-08-31T02:20:56;12.48;;;7.38;;
47555;SDS011;33291;46.222;26.460;2023-08-31T02:23:22;9.00;;;6.13;;
47555;SDS011;33291;46.222;26.460;2023-08-31T02:25:47;8.20;;;7.28;;
47555;SDS011;33291;46.222;26.460;2023-08-31T02:28:13;14.15;;;6.70;;
47555;SDS011;33291;46.222;26.460;2023-08-31T02:30:38;8.60;;;6.57;;
47555;SDS011;33291;46.222;26.460;2023-08-31T02:33:04;11.50;;;7.28;;
47555;SDS011;33291;46.222;26.460;2023-08-31T02:35:29;9.52;;;6.78;;
47555;SDS011;33291;46.222;26.460;2023-08-31T02:37:55;9.48;;;7.10;;
47555;SDS011;33291;46.222;26.460;2023-08-31T02:40:20;9.02;;;6.22;;
47555;SDS011;33291;46.222;26.460;2023-08-31T02:42:46;12.82;;;6.80;;
47555;SDS011;33291;46.222;26.460;2023-08-31T02:45:15;11.98;;;7.07;;
47555;SDS011;33291;46.222;26.460;2023-08-31T02:47:41;10.27;;;5.90;;
47555;SDS011;33291;46.222;26.460;2023-08-31T02:50:07;10.55;;;6.47;;
47555;SDS011;33291;46.222;26.460;2023-08-31T02:52:32;9.27;;;6.00;;
47555;SDS011;33291;46.222;26.460;2023-08-31T02:54:58;9.60;;;6.60;;
47555;SDS011;33291;46.222;26.460;2023-08-31T02:57:23;7.25;;;6.50;;
47555;SDS011;33291;46.222;26.460;2023-08-31T02:59:49;10.93;;;7.18;;
47555;SDS011;33291;46.222;26.460;2023-08-31T03:02:15;10.32;;;6.45;;
47555;SDS011;33291;46.222;26.460;2023-08-31T03:04:41;9.85;;;6.85;;
47555;SDS011;33291;46.222;26.460;2023-08-31T03:07:06;10.45;;;5.78;;
47555;SDS011;33291;46.222;26.460;2023-08-31T03:09:32;10.05;;;6.07;;
47555;SDS011;33291;46.222;26.460;2023-08-31T03:11:57;9.23;;;6.72;;
47555;SDS011;33291;46.222;26.460;2023-08-31T03:14:23;13.35;;;6.53;;
47555;SDS011;33291;46.222;26.460;2023-08-31T03:16:48;12.00;;;5.82;;
47555;SDS011;33291;46.222;26.460;2023-08-31T03:19:14;9.65;;;6.03;;
47555;SDS011;33291;46.222;26.460;2023-08-31T03:21:40;12.00;;;5.70;;
47555;SDS011;33291;46.222;26.460;2023-08-31T03:24:05;8.55;;;6.25;;
47555;SDS011;33291;46.222;26.460;2023-08-31T03:26:31;17.98;;;6.90;;
47555;SDS011;33291;46.222;26.460;2023-08-31T03:28:56;8.93;;;5.85;;
47555;SDS011;33291;46.222;26.460;2023-08-31T03:31:22;11.18;;;6.85;;
47555;SDS011;33291;46.222;26.460;2023-08-31T03:33:49;13.43;;;5.97;;
47555;SDS011;33291;46.222;26.460;2023-08-31T03:36:15;9.90;;;5.78;;
47555;SDS011;33291;46.222;26.460;2023-08-31T03:38:40;12.15;;;6.70;;
47555;SDS011;33291;46.222;26.460;2023-08-31T03:41:06;7.47;;;6.68;;
47555;SDS011;33291;46.222;26.460;2023-08-31T03:43:32;9.68;;;7.40;;
47555;SDS011;33291;46.222;26.460;2023-08-31T03:45:57;8.60;;;6.18;;
47555;SDS011;33291;46.222;26.460;2023-08-31T03:48:23;10.77;;;7.13;;
47555;SDS011;33291;46.222;26.460;2023-08-31T03:50:52;10.95;;;7.35;;
47555;SDS011;33291;46.222;26.460;2023-08-31T03:53:18;8.95;;;6.38;;
47555;SDS011;33291;46.222;26.460;2023-08-31T03:55:44;12.30;;;6.90;;
47555;SDS011;33291;46.222;26.460;2023-08-31T03:58:09;10.98;;;6.97;;
47555;SDS011;33291;46.222;26.460;2023-08-31T04:00:36;9.55;;;6.25;;
47555;SDS011;33291;46.222;26.460;2023-08-31T04:03:01;7.82;;;6.57;;
47555;SDS011;33291;46.222;26.460;2023-08-31T04:05:28;12.95;;;6.68;;
47555;SDS011;33291;46.222;26.460;2023-08-31T04:07:53;8.75;;;7.45;;
47555;SDS011;33291;46.222;26.460;2023-08-31T04:10:19;8.93;;;7.25;;
47555;SDS011;33291;46.222;26.460;2023-08-31T04:12:44;20.33;;;7.47;;
47555;SDS011;33291;46.222;26.460;2023-08-31T04:15:10;9.35;;;7.63;;
47555;SDS011;33291;46.222;26.460;2023-08-31T04:17:36;6.82;;;6.20;;
47555;SDS011;33291;46.222;26.460;2023-08-31T04:20:02;12.65;;;6.63;;
47555;SDS011;33291;46.222;26.460;2023-08-31T04:22:30;8.15;;;6.60;;
47555;SDS011;33291;46.222;26.460;2023-08-31T04:24:56;7.15;;;5.88;;
47555;SDS011;33291;46.222;26.460;2023-08-31T04:27:21;8.55;;;5.72;;
47555;SDS011;33291;46.222;26.460;2023-08-31T04:29:47;6.78;;;5.53;;
47555;SDS011;33291;46.222;26.460;2023-08-31T04:32:13;12.77;;;6.40;;
47555;SDS011;33291;46.222;26.460;2023-08-31T04:34:38;10.23;;;6.38;;
47555;SDS011;33291;46.222;26.460;2023-08-31T04:37:04;7.65;;;6.43;;
47555;SDS011;33291;46.222;26.460;2023-08-31T04:39:29;10.80;;;6.32;;
47555;SDS011;33291;46.222;26.460;2023-08-31T04:41:55;7.72;;;6.18;;
47555;SDS011;33291;46.222;26.460;2023-08-31T04:44:20;10.38;;;6.18;;
47555;SDS011;33291;46.222;26.460;2023-08-31T04:46:46;9.80;;;5.68;;
47555;SDS011;33291;46.222;26.460;2023-08-31T04:49:11;10.65;;;5.85;;
47555;SDS011;33291;46.222;26.460;2023-08-31T04:51:37;8.25;;;5.55;;
47555;SDS011;33291;46.222;26.460;2023-08-31T04:54:04;9.30;;;5.53;;
47555;SDS011;33291;46.222;26.460;2023-08-31T04:56:30;13.68;;;6.32;;
47555;SDS011;33291;46.222;26.460;2023-08-31T04:58:57;10.30;;;6.40;;
47555;SDS011;33291;46.222;26.460;2023-08-31T05:01:23;10.85;;;6.32;;
47555;SDS011;33291;46.222;26.460;2023-08-31T05:03:48;10.13;;;6.55;;
47555;SDS011;33291;46.222;26.460;2023-08-31T05:06:14;7.70;;;6.80;;
47555;SDS011;33291;46.222;26.460;2023-08-31T05:08:39;11.32;;;6.22;;
47555;SDS011;33291;46.222;26.460;2023-08-31T05:11:05;7.82;;;6.45;;
47555;SDS011;33291;46.222;26.460;2023-08-31T05:13:30;10.65;;;6.43;;
47555;SDS011;33291;46.222;26.460;2023-08-31T05:15:56;9.32;;;5.55;;
47555;SDS011;33291;46.222;26.460;2023-08-31T05:18:21;11.50;;;5.72;;
47555;SDS011;33291;46.222;26.460;2023-08-31T05:20:47;8.65;;;6.03;;
47555;SDS011;33291;46.222;26.460;2023-08-31T05:23:13;6.47;;;5.63;;
47555;SDS011;33291;46.222;26.460;2023-08-31T05:25:45;12.48;;;5.88;;
47555;SDS011;33291;46.222;26.460;2023-08-31T05:28:11;16.85;;;5.78;;
47555;SDS011;33291;46.222;26.460;2023-08-31T05:30:37;10.88;;;6.45;;
47555;SDS011;33291;46.222;26.460;2023-08-31T05:33:11;8.65;;;6.10;;
47555;SDS011;33291;46.222;26.460;2023-08-31T05:35:36;6.65;;;5.95;;
47555;SDS011;33291;46.222;26.460;2023-08-31T05:38:01;12.63;;;6.57;;
47555;SDS011;33291;46.222;26.460;2023-08-31T05:40:28;11.52;;;6.00;;
47555;SDS011;33291;46.222;26.460;2023-08-31T05:42:53;13.02;;;6.20;;
47555;SDS011;33291;46.222;26.460;2023-08-31T05:45:19;7.00;;;6.18;;
47555;SDS011;33291;46.222;26.460;2023-08-31T05:47:44;11.38;;;6.95;;
47555;SDS011;33291;46.222;26.460;2023-08-31T05:50:10;12.60;;;6.95;;
47555;SDS011;33291;46.222;26.460;2023-08-31T05:52:35;6.90;;;5.90;;
47555;SDS011;33291;46.222;26.460;2023-08-31T05:55:02;9.93;;;6.13;;
47555;SDS011;33291;46.222;26.460;2023-08-31T05:57:28;12.70;;;6.80;;
47555;SDS011;33291;46.222;26.460;2023-08-31T05:59:54;13.55;;;6.75;;
47555;SDS011;33291;46.222;26.460;2023-08-31T06:02:19;12.80;;;6.10;;
47555;SDS011;33291;46.222;26.460;2023-08-31T06:04:45;13.48;;;6.72;;
47555;SDS011;33291;46.222;26.460;2023-08-31T06:07:10;6.50;;;5.90;;
47555;SDS011;33291;46.222;26.460;2023-08-31T06:09:36;7.53;;;6.50;;
47555;SDS011;33291;46.222;26.460;2023-08-31T06:12:03;14.48;;;5.75;;
47555;SDS011;33291;46.222;26.460;2023-08-31T06:14:29;13.93;;;6.53;;
47555;SDS011;33291;46.222;26.460;2023-08-31T06:16:54;10.95;;;6.28;;
47555;SDS011;33291;46.222;26.460;2023-08-31T06:19:20;16.73;;;6.05;;
47555;SDS011;33291;46.222;26.460;2023-08-31T06:21:45;7.53;;;6.50;;
47555;SDS011;33291;46.222;26.460;2023-08-31T06:24:11;8.77;;;6.25;;
47555;SDS011;33291;46.222;26.460;2023-08-31T06:26:38;14.15;;;6.88;;
47555;SDS011;33291;46.222;26.460;2023-08-31T06:29:04;9.60;;;7.00;;
47555;SDS011;33291;46.222;26.460;2023-08-31T06:31:29;11.90;;;6.18;;
47555;SDS011;33291;46.222;26.460;2023-08-31T06:33:55;9.68;;;6.60;;
47555;SDS011;33291;46.222;26.460;2023-08-31T06:36:20;7.20;;;5.63;;
47555;SDS011;33291;46.222;26.460;2023-08-31T06:38:46;7.47;;;6.55;;
47555;SDS011;33291;46.222;26.460;2023-08-31T06:41:11;8.85;;;6.53;;
47555;SDS011;33291;46.222;26.460;2023-08-31T06:43:37;11.98;;;6.90;;
47555;SDS011;33291;46.222;26.460;2023-08-31T06:46:02;12.00;;;6.95;;
47555;SDS011;33291;46.222;26.460;2023-08-31T06:48:28;11.40;;;7.65;;
47555;SDS011;33291;46.222;26.460;2023-08-31T06:50:53;13.50;;;7.35;;
47555;SDS011;33291;46.222;26.460;2023-08-31T06:53:19;9.73;;;8.10;;
47555;SDS011;33291;46.222;26.460;2023-08-31T06:55:45;10.10;;;7.53;;
47555;SDS011;33291;46.222;26.460;2023-08-31T06:58:10;14.02;;;7.03;;
47555;SDS011;33291;46.222;26.460;2023-08-31T07:00:36;10.40;;;7.47;;
47555;SDS011;33291;46.222;26.460;2023-08-31T07:03:01;14.85;;;6.80;;
47555;SDS011;33291;46.222;26.460;2023-08-31T07:05:27;7.30;;;5.82;;
47555;SDS011;33291;46.222;26.460;2023-08-31T07:07:54;8.35;;;6.43;;
47555;SDS011;33291;46.222;26.460;2023-08-31T07:10:21;7.75;;;5.85;;
47555;SDS011;33291;46.222;26.460;2023-08-31T07:12:47;16.17;;;6.90;;
47555;SDS011;33291;46.222;26.460;2023-08-31T07:15:12;6.82;;;5.45;;
47555;SDS011;33291;46.222;26.460;2023-08-31T07:17:38;8.27;;;5.80;;
47555;SDS011;33291;46.222;26.460;2023-08-31T07:20:03;7.43;;;5.50;;
47555;SDS011;33291;46.222;26.460;2023-08-31T07:22:33;8.55;;;6.97;;
47555;SDS011;33291;46.222;26.460;2023-08-31T07:25:00;6.30;;;5.70;;
47555;SDS011;33291;46.222;26.460;2023-08-31T07:27:25;10.32;;;5.32;;
47555;SDS011;33291;46.222;26.460;2023-08-31T07:29:53;8.75;;;5.90;;
47555;SDS011;33291;46.222;26.460;2023-08-31T07:32:19;15.10;;;5.75;;
47555;SDS011;33291;46.222;26.460;2023-08-31T07:34:45;6.50;;;5.72;;
47555;SDS011;33291;46.222;26.460;2023-08-31T07:37:10;12.45;;;6.68;;
47555;SDS011;33291;46.222;26.460;2023-08-31T07:39:36;11.43;;;6.25;;
47555;SDS011;33291;46.222;26.460;2023-08-31T07:42:01;7.63;;;6.10;;
47555;SDS011;33291;46.222;26.460;2023-08-31T07:44:27;7.97;;;5.80;;
47555;SDS011;33291;46.222;26.460;2023-08-31T07:46:52;15.05;;;6.07;;
47555;SDS011;33291;46.222;26.460;2023-08-31T07:49:18;10.77;;;5.60;;
47555;SDS011;33291;46.222;26.460;2023-08-31T07:51:43;6.40;;;5.80;;
47555;SDS011;33291;46.222;26.460;2023-08-31T07:54:09;7.55;;;6.03;;
47555;SDS011;33291;46.222;26.460;2023-08-31T07:56:34;9.82;;;6.22;;
47555;SDS011;33291;46.222;26.460;2023-08-31T07:59:00;6.63;;;5.97;;
47555;SDS011;33291;46.222;26.460;2023-08-31T08:01:25;7.32;;;5.38;;
47555;SDS011;33291;46.222;26.460;2023-08-31T08:03:51;6.45;;;5.28;;
47555;SDS011;33291;46.222;26.460;2023-08-31T08:06:16;8.90;;;5.60;;
47555;SDS011;33291;46.222;26.460;2023-08-31T08:08:42;8.02;;;5.55;;
47555;SDS011;33291;46.222;26.460;2023-08-31T08:11:07;6.28;;;5.55;;
47555;SDS011;33291;46.222;26.460;2023-08-31T08:13:33;10.50;;;5.70;;
47555;SDS011;33291;46.222;26.460;2023-08-31T08:15:58;5.93;;;4.90;;
47555;SDS011;33291;46.222;26.460;2023-08-31T08:18:24;5.75;;;5.13;;
47555;SDS011;33291;46.222;26.460;2023-08-31T08:20:52;5.45;;;4.80;;
47555;SDS011;33291;46.222;26.460;2023-08-31T08:23:18;7.25;;;4.88;;
47555;SDS011;33291;46.222;26.460;2023-08-31T08:25:44;9.10;;;6.20;;
47555;SDS011;33291;46.222;26.460;2023-08-31T08:28:09;8.35;;;5.45;;
47555;SDS011;33291;46.222;26.460;2023-08-31T08:30:35;6.10;;;4.93;;
47555;SDS011;33291;46.222;26.460;2023-08-31T08:33:00;9.65;;;5.43;;
47555;SDS011;33291;46.222;26.460;2023-08-31T08:35:26;6.40;;;5.47;;
47555;SDS011;33291;46.222;26.460;2023-08-31T08:37:52;10.18;;;5.68;;
47555;SDS011;33291;46.222;26.460;2023-08-31T08:40:17;8.25;;;4.95;;
47555;SDS011;33291;46.222;26.460;2023-08-31T08:42:43;7.13;;;5.57;;
47555;SDS011;33291;46.222;26.460;2023-08-31T08:45:15;9.57;;;5.20;;
47555;SDS011;33291;46.222;26.460;2023-08-31T08:47:44;8.05;;;5.22;;
47555;SDS011;33291;46.222;26.460;2023-08-31T08:50:11;11.30;;;5.10;;
47555;SDS011;33291;46.222;26.460;2023-08-31T08:52:38;8.48;;;4.78;;
47555;SDS011;33291;46.222;26.460;2023-08-31T08:55:04;6.82;;;5.32;;
47555;SDS011;33291;46.222;26.460;2023-08-31T08:57:31;8.45;;;5.35;;
47555;SDS011;33291;46.222;26.460;2023-08-31T08:59:59;6.55;;;5.45;;
47555;SDS011;33291;46.222;26.460;2023-08-31T09:02:25;8.30;;;5.10;;
47555;SDS011;33291;46.222;26.460;2023-08-31T09:04:50;7.03;;;4.82;;
47555;SDS011;33291;46.222;26.460;2023-08-31T09:07:19;9.75;;;5.30;;
47555;SDS011;33291;46.222;26.460;2023-08-31T09:09:50;12.43;;;5.07;;
47555;SDS011;33291;46.222;26.460;2023-08-31T09:12:17;9.57;;;4.75;;
47555;SDS011;33291;46.222;26.460;2023-08-31T09:14:42;8.18;;;4.50;;
47555;SDS011;33291;46.222;26.460;2023-08-31T09:17:08;8.77;;;5.13;;
47555;SDS011;33291;46.222;26.460;2023-08-31T09:19:33;9.32;;;5.60;;
47555;SDS011;33291;46.222;26.460;2023-08-31T09:22:00;9.43;;;4.75;;
47555;SDS011;33291;46.222;26.460;2023-08-31T09:24:25;7.65;;;5.20;;
47555;SDS011;33291;46.222;26.460;2023-08-31T09:26:55;8.38;;;4.40;;
47555;SDS011;33291;46.222;26.460;2023-08-31T09:29:22;5.97;;;4.78;;
47555;SDS011;33291;46.222;26.460;2023-08-31T09:31:47;14.93;;;5.50;;
47555;SDS011;33291;46.222;26.460;2023-08-31T09:34:16;10.18;;;5.75;;
47555;SDS011;33291;46.222;26.460;2023-08-31T09:36:43;8.75;;;5.28;;
47555;SDS011;33291;46.222;26.460;2023-08-31T09:39:09;7.30;;;4.82;;
47555;SDS011;33291;46.222;26.460;2023-08-31T09:41:51;8.82;;;5.35;;
47555;SDS011;33291;46.222;26.460;2023-08-31T09:44:18;5.93;;;4.88;;
47555;SDS011;33291;46.222;26.460;2023-08-31T09:46:45;12.68;;;5.25;;
47555;SDS011;33291;46.222;26.460;2023-08-31T09:49:12;8.93;;;5.30;;
47555;SDS011;33291;46.222;26.460;2023-08-31T09:51:41;8.52;;;4.82;;
47555;SDS011;33291;46.222;26.460;2023-08-31T09:54:09;9.88;;;4.80;;
47555;SDS011;33291;46.222;26.460;2023-08-31T09:56:42;5.45;;;4.63;;
47555;SDS011;33291;46.222;26.460;2023-08-31T09:59:09;10.40;;;4.53;;
47555;SDS011;33291;46.222;26.460;2023-08-31T10:01:35;9.05;;;5.28;;
47555;SDS011;33291;46.222;26.460;2023-08-31T10:04:02;8.27;;;4.95;;
47555;SDS011;33291;46.222;26.460;2023-08-31T10:06:28;5.38;;;4.10;;
47555;SDS011;33291;46.222;26.460;2023-08-31T10:08:54;7.22;;;4.47;;
47555;SDS011;33291;46.222;26.460;2023-08-31T10:11:20;7.32;;;4.28;;
47555;SDS011;33291;46.222;26.460;2023-08-31T10:13:47;8.70;;;4.28;;
47555;SDS011;33291;46.222;26.460;2023-08-31T10:16:14;6.28;;;4.35;;
47555;SDS011;33291;46.222;26.460;2023-08-31T10:18:41;6.50;;;4.45;;
47555;SDS011;33291;46.222;26.460;2023-08-31T10:21:07;9.70;;;4.50;;
47555;SDS011;33291;46.222;26.460;2023-08-31T10:23:33;12.18;;;4.82;;
47555;SDS011;33291;46.222;26.460;2023-08-31T10:26:00;9.98;;;4.95;;
47555;SDS011;33291;46.222;26.460;2023-08-31T10:28:28;8.65;;;5.20;;
47555;SDS011;33291;46.222;26.460;2023-08-31T10:31:16;9.00;;;5.00;;
47555;SDS011;33291;46.222;26.460;2023-08-31T10:33:44;7.72;;;4.68;;
47555;SDS011;33291;46.222;26.460;2023-08-31T10:36:14;4.78;;;4.10;;
47555;SDS011;33291;46.222;26.460;2023-08-31T10:38:41;7.88;;;4.22;;
47555;SDS011;33291;46.222;26.460;2023-08-31T10:41:32;9.23;;;4.90;;
47555;SDS011;33291;46.222;26.460;2023-08-31T10:43:58;6.93;;;4.20;;
47555;SDS011;33291;46.222;26.460;2023-08-31T10:49:12;5.10;;;4.18;;
47555;SDS011;33291;46.222;26.460;2023-08-31T10:52:13;6.35;;;3.90;;
47555;SDS011;33291;46.222;26.460;2023-08-31T10:54:45;7.03;;;4.40;;
47555;SDS011;33291;46.222;26.460;2023-08-31T10:57:11;7.55;;;4.28;;
47555;SDS011;33291;46.222;26.460;2023-08-31T10:59:48;9.25;;;4.30;;
47555;SDS011;33291;46.222;26.460;2023-08-31T11:02:30;6.97;;;4.80;;
47555;SDS011;33291;46.222;26.460;2023-08-31T11:07:40;7.20;;;4.00;;
47555;SDS011;33291;46.222;26.460;2023-08-31T11:10:08;5.60;;;4.32;;
47555;SDS011;33291;46.222;26.460;2023-08-31T11:12:35;6.55;;;3.95;;
47555;SDS011;33291;46.222;26.460;2023-08-31T11:15:01;8.40;;;3.75;;
47555;SDS011;33291;46.222;26.460;2023-08-31T11:17:28;8.90;;;4.63;;
47555;SDS011;33291;46.222;26.460;2023-08-31T11:19:54;10.45;;;4.30;;
47555;SDS011;33291;46.222;26.460;2023-08-31T11:22:21;8.30;;;4.10;;
47555;SDS011;33291;46.222;26.460;2023-08-31T11:24:46;5.78;;;4.45;;
47555;SDS011;33291;46.222;26.460;2023-08-31T11:27:12;8.68;;;4.07;;
47555;SDS011;33291;46.222;26.460;2023-08-31T11:29:37;10.57;;;4.18;;
47555;SDS011;33291;46.222;26.460;2023-08-31T11:32:07;4.75;;;3.63;;
47555;SDS011;33291;46.222;26.460;2023-08-31T11:34:33;5.25;;;4.20;;
47555;SDS011;33291;46.222;26.460;2023-08-31T11:36:58;7.65;;;3.80;;
47555;SDS011;33291;46.222;26.460;2023-08-31T11:39:24;7.35;;;3.65;;
47555;SDS011;33291;46.222;26.460;2023-08-31T11:41:49;7.95;;;3.67;;
47555;SDS011;33291;46.222;26.460;2023-08-31T11:44:15;8.10;;;3.92;;
47555;SDS011;33291;46.222;26.460;2023-08-31T11:46:42;6.45;;;3.83;;
47555;SDS011;33291;46.222;26.460;2023-08-31T11:49:10;7.57;;;3.92;;
47555;SDS011;33291;46.222;26.460;2023-08-31T11:51:36;6.68;;;4.22;;
47555;SDS011;33291;46.222;26.460;2023-08-31T11:54:04;7.38;;;4.00;;
47555;SDS011;33291;46.222;26.460;2023-08-31T11:56:43;4.80;;;3.42;;
47555;SDS011;33291;46.222;26.460;2023-08-31T11:59:11;5.43;;;3.70;;
47555;SDS011;33291;46.222;26.460;2023-08-31T12:01:38;5.15;;;3.80;;
47555;SDS011;33291;46.222;26.460;2023-08-31T12:04:14;11.55;;;4.30;;
47555;SDS011;33291;46.222;26.460;2023-08-31T12:06:50;7.60;;;3.88;;
47555;SDS011;33291;46.222;26.460;2023-08-31T12:09:17;8.40;;;3.95;;
47555;SDS011;33291;46.222;26.460;2023-08-31T12:11:52;12.40;;;3.85;;
47555;SDS011;33291;46.222;26.460;2023-08-31T12:14:22;7.30;;;4.03;;
47555;SDS011;33291;46.222;26.460;2023-08-31T12:16:48;9.55;;;3.80;;
47555;SDS011;33291;46.222;26.460;2023-08-31T12:19:15;6.53;;;3.60;;
47555;SDS011;33291;46.222;26.460;2023-08-31T12:21:42;8.57;;;4.05;;
47555;SDS011;33291;46.222;26.460;2023-08-31T12:24:09;7.32;;;3.95;;
47555;SDS011;33291;46.222;26.460;2023-08-31T12:26:34;9.93;;;4.13;;
47555;SDS011;33291;46.222;26.460;2023-08-31T12:29:00;10.27;;;4.90;;
47555;SDS011;33291;46.222;26.460;2023-08-31T12:31:26;8.48;;;4.38;;
47555;SDS011;33291;46.222;26.460;2023-08-31T12:33:51;10.68;;;4.00;;
47555;SDS011;33291;46.222;26.460;2023-08-31T12:36:17;4.38;;;3.50;;
47555;SDS011;33291;46.222;26.460;2023-08-31T12:38:42;7.90;;;4.05;;
47555;SDS011;33291;46.222;26.460;2023-08-31T12:41:08;5.72;;;4.00;;
47555;SDS011;33291;46.222;26.460;2023-08-31T12:43:34;4.88;;;3.60;;
47555;SDS011;33291;46.222;26.460;2023-08-31T12:46:00;6.30;;;3.60;;
47555;SDS011;33291;46.222;26.460;2023-08-31T12:48:26;10.02;;;3.22;;
47555;SDS011;33291;46.222;26.460;2023-08-31T12:50:51;6.22;;;3.70;;
47555;SDS011;33291;46.222;26.460;2023-08-31T12:53:20;6.03;;;3.45;;
47555;SDS011;33291;46.222;26.460;2023-08-31T12:55:47;5.30;;;3.35;;
47555;SDS011;33291;46.222;26.460;2023-08-31T12:58:12;7.18;;;3.85;;
47555;SDS011;33291;46.222;26.460;2023-08-31T13:00:38;5.43;;;3.28;;
47555;SDS011;33291;46.222;26.460;2023-08-31T13:03:04;5.78;;;3.83;;
47555;SDS011;33291;46.222;26.460;2023-08-31T13:05:31;4.93;;;3.83;;
47555;SDS011;33291;46.222;26.460;2023-08-31T13:07:57;8.30;;;3.83;;
47555;SDS011;33291;46.222;26.460;2023-08-31T13:10:22;6.00;;;3.80;;
47555;SDS011;33291;46.222;26.460;2023-08-31T13:12:48;4.50;;;3.88;;
47555;SDS011;33291;46.222;26.460;2023-08-31T13:15:14;6.85;;;3.72;;
47555;SDS011;33291;46.222;26.460;2023-08-31T13:17:40;5.47;;;3.63;;
47555;SDS011;33291;46.222;26.460;2023-08-31T13:20:06;8.55;;;3.70;;
47555;SDS011;33291;46.222;26.460;2023-08-31T13:22:33;4.35;;;3.65;;
47555;SDS011;33291;46.222;26.460;2023-08-31T13:24:59;10.95;;;4.90;;
47555;SDS011;33291;46.222;26.460;2023-08-31T13:27:24;7.50;;;4.18;;
47555;SDS011;33291;46.222;26.460;2023-08-31T13:29:50;9.60;;;4.03;;
47555;SDS011;33291;46.222;26.460;2023-08-31T13:32:16;6.93;;;3.80;;
47555;SDS011;33291;46.222;26.460;2023-08-31T13:34:41;6.38;;;4.40;;
47555;SDS011;33291;46.222;26.460;2023-08-31T13:37:06;6.45;;;4.18;;
47555;SDS011;33291;46.222;26.460;2023-08-31T13:39:33;8.85;;;4.57;;
47555;SDS011;33291;46.222;26.460;2023-08-31T13:42:00;7.18;;;4.20;;
47555;SDS011;33291;46.222;26.460;2023-08-31T13:44:28;11.40;;;4.38;;
47555;SDS011;33291;46.222;26.460;2023-08-31T13:46:54;15.82;;;4.20;;
47555;SDS011;33291;46.222;26.460;2023-08-31T13:49:19;12.68;;;4.38;;
47555;SDS011;33291;46.222;26.460;2023-08-31T13:51:45;11.75;;;4.43;;
47555;SDS011;33291;46.222;26.460;2023-08-31T13:54:10;13.95;;;4.43;;
47555;SDS011;33291;46.222;26.460;2023-08-31T13:56:36;8.85;;;4.68;;
47555;SDS011;33291;46.222;26.460;2023-08-31T13:59:02;9.52;;;4.50;;
47555;SDS011;33291;46.222;26.460;2023-08-31T14:01:28;9.95;;;4.72;;
47555;SDS011;33291;46.222;26.460;2023-08-31T14:03:53;7.80;;;4.60;;
47555;SDS011;33291;46.222;26.460;2023-08-31T14:06:19;12.32;;;5.55;;
47555;SDS011;33291;46.222;26.460;2023-08-31T14:08:44;9.32;;;4.85;;
47555;SDS011;33291;46.222;26.460;2023-08-31T14:11:10;10.55;;;4.40;;
47555;SDS011;33291;46.222;26.460;2023-08-31T14:13:35;10.63;;;5.28;;
47555;SDS011;33291;46.222;26.460;2023-08-31T14:16:01;14.05;;;5.32;;
47555;SDS011;33291;46.222;26.460;2023-08-31T14:18:27;12.98;;;4.90;;
47555;SDS011;33291;46.222;26.460;2023-08-31T14:20:57;9.88;;;4.93;;
47555;SDS011;33291;46.222;26.460;2023-08-31T14:23:26;13.77;;;4.53;;
47555;SDS011;33291;46.222;26.460;2023-08-31T14:25:52;11.52;;;5.60;;
47555;SDS011;33291;46.222;26.460;2023-08-31T14:28:18;12.88;;;5.10;;
47555;SDS011;33291;46.222;26.460;2023-08-31T14:30:43;7.93;;;5.47;;
47555;SDS011;33291;46.222;26.460;2023-08-31T14:33:08;11.55;;;5.75;;
47555;SDS011;33291;46.222;26.460;2023-08-31T14:35:37;6.63;;;5.18;;
47555;SDS011;33291;46.222;26.460;2023-08-31T14:38:03;13.50;;;6.15;;
47555;SDS011;33291;46.222;26.460;2023-08-31T14:40:30;13.93;;;4.95;;